Blossom 10 Miler

Back to 2013 Road Races

2013 Road Race #6

2013-05-12, Naramata, 16.0 km, 152 runners
# Name City Age GP CP Time Pace
1 Hans Aabye Merritt M35-39 0:54:40 03:25
2 Ryan Day Penticton M30-34 0:56:45 03:32
3 Trevor Haaheim Kelowna M40-44 0:57:37 03:36
4 Justin Birks Penticton M30-34 4 0:58:56 03:41
5 Douglas Alward Chilliwack M55-59 5 0:59:39 03:43
6 Sergio Pio Penticton M45-49 6 1:00:40 03:47
7 Wade Carlson Penticton M20-29 7 1:01:02 03:48
8 Hector Carlos Penticton M40-44 8 1:02:15 03:53
9 Josh Heinrich Penticton M30-34 9 1:02:41 03:55
10 Shayne Wright Vernon M35-39 10 1:03:00 03:56
11 Simon Craig Vernon M45-49 11 1:03:16 03:57
12 Doug Giles North Vancouver M30-34 12 4 1:03:42 03:58
13 Emily Allin Penticton F16-19 1:04:11 04:00
14 Lawrence Grigg Vancouver M40-44 13 1:04:26 04:01
15 Randy Werger Kelowna M50-54 14 1:06:31 04:09
16 Jeremy Hopwood Richmond M30-34 15 5 1:06:56 04:11
17 Bruce Wark Merritt M60-64 16 1:07:11 04:11
18 Marie-Josee Bedard Merritt F40-44 1:07:22 04:12
19 Cindy Rhodes Kelowna F55-59 1:07:44 04:14
20 Perry Grunenberg Kamloops M55-59 17 1:07:50 04:14
21 Yvonne Timewell Kamloops F45-49 4 1:08:44 04:17
22 Jen Annett Penticton F20-29 5 1:09:10 04:19
23 John Wilson Vernon M35-39 18 1:10:27 04:24
24 Jordan Sim Kamloops M50-54 19 1:10:33 04:24
25 Brad Cochrane Penticton M50-54 20 1:11:28 04:28
26 Tim Purcer Kelowna M55-59 21 1:11:45 04:29
27 Lance Zablotney Penticton M55-59 22 4 1:12:49 04:33
28 Delilah Topic Kelowna F30-34 6 1:13:05 04:34
29 Gerry Naito Vernon M55-59 23 5 1:13:18 04:34
30 Rod Campbell Vancouver M50-54 24 4 1:13:40 04:36
31 Dan Tweyman Penticton M30-34 25 6 1:13:54 04:37
32 Dylan Erhardt Kelowna F16-19 7 1:14:08 04:38
33 Helen Munro Kelowna F50-54 8 1:14:23 04:38
34 Carl Peterson Penticton M60-64 26 1:14:23 04:38
35 Katharine Bowyer Penticton F20-29 9 1:15:42 04:43
36 Laura Medcalf Vernon F30-34 10 1:15:58 04:44
37 Pamela Rutten Penticton F35-39 11 1:16:19 04:46
38 Melissa Hagel Penticton F30-34 12 1:16:19 04:46
39 Lisa Wambold Penticton F35-39 13 1:17:34 04:50
40 Frank Wolfinger Penticton M55-59 27 6 1:17:35 04:50
41 Caroline Goodjohn Naramata F30-34 14 4 1:18:19 04:53
42 Sherie Seddon Penticton F30-34 15 5 1:18:22 04:53
43 Suzan Cochrane Penticton F50-54 16 1:18:56 04:56
44 Kiah Wheeler Naramata F16-19 17 1:19:31 04:58
45 Danette Zamluk Westbank F35-39 18 1:19:37 04:58
46 Bill Faulkner Kaleden M65-69 28 1:19:53 04:59
47 Amanda Kontkanen Penticton F35-39 19 4 1:20:09 05:00
48 Sally Heinrick Kelowna F50-54 20 1:20:20 05:01
49 Matt Holmes Penticton M35-39 29 4 1:20:27 05:01
50 Fraser Stewart Kamloops M60-64 30 1:21:13 05:04
51 Lynda Proce Coldstream F55-59 21 1:21:37 05:06
52 Sophia Chadwick Summerland F20-29 22 1:21:52 05:07
53 Kyle Sunderman Penticton M40-44 31 4 1:21:59 05:07
54 Curtis Wallace Vernon M30-34 32 7 1:22:17 05:08
55 Courtney Milligan Penticton F16-19 23 4 1:22:22 05:08
56 Peter Pollhammer Kelowna M70-74 33 1:22:25 05:09
57 Robin Levant Oliver F40-44 24 1:22:33 05:09
58 Keith Burton West Kelowna M65-69 34 1:22:55 05:10
59 Ken Riegel Vernon M60-64 35 4 1:22:59 05:11
60 Russell Williams Vernon M40-44 36 5 1:23:10 05:11
61 Stephen Joyce Coldstream M50-54 37 5 1:23:19 05:12
62 Laurie Wheeler Naramata F45-49 25 1:23:20 05:12
63 Ed Marbach Penticton M50-54 38 6 1:23:20 05:12
64 Autumn Hughes Denman Island F20-29 26 4 1:23:42 05:13
65 Andrew Mitchell Penticton M20-29 39 1:23:42 05:13
66 Lori Mullin Summerland F40-44 27 1:23:44 05:14
67 Chris Greenway Kelowna M60-64 40 5 1:23:53 05:14
68 Steve Lapointe Okanagan Falls M50-54 41 7 1:24:01 05:15
69 Diane Leonard Kelowna F65-69 28 1:24:09 05:15
70 Carolyn Hubbard North Vancouver F45-49 29 1:24:25 05:16
71 Becki Parker Lake Country F40-44 30 4 1:24:31 05:16
72 Lisa Spalding Penticton F45-49 31 4 1:24:39 05:17
73 Leanne Karpuk Penticton F45-49 32 5 1:24:49 05:18
74 Monika Brooke Penticton F40-44 33 5 1:24:50 05:18
75 Robert Johnston Burnaby M45-49 42 1:24:58 05:18
76 Janette Davies Naramata F40-44 34 6 1:25:00 05:18
77 Robert Ferguson Naramata M60-64 43 6 1:25:13 05:19
78 Deb Lougheed Penticton F50-54 35 4 1:25:59 05:22
79 Laurie Matthies Okanagan Falls F50-54 36 5 1:26:24 05:24
80 Melvin Doherty Kamloops M60-64 44 7 1:26:26 05:24
81 Cathy Rooke Penticton F35-39 37 5 1:26:31 05:24
82 Joelle Sherman Vernon F45-49 38 6 1:26:46 05:25
83 Rory Bass Kelowna M45-49 45 4 1:27:15 05:27
84 Carsten Reinsch Kelowna M35-39 46 5 1:27:27 05:27
85 Alison Crawford Summerland F55-59 39 1:27:48 05:29
86 Cheryl Heggs Lake Country F40-44 40 7 1:27:53 05:29
87 Jeannie Pelletier Kelowna F40-44 41 8 1:27:57 05:29
88 Shawn Baenziger Kelowna M65-69 47 1:28:28 05:31
89 Vanessa Mclean Oliver F40-44 42 9 1:28:46 05:32
90 Kathleen Renaud Vernon F50-54 43 6 1:28:55 05:33
91 Jennifer Wagner Penticton F30-34 44 6 1:29:09 05:34
92 Michelle Kincade Penticton F40-44 45 10 1:29:09 05:34
93 Deborah Chadwick Summerland F50-54 46 7 1:29:24 05:35
94 Trevor Gambell Osoyoos M65-69 48 4 1:29:25 05:35
95 Ted Sawford Calgary M65-69 49 5 1:29:28 05:35
96 Louis Stupar Kelowna M65-69 50 6 1:30:09 05:38
97 Markus Heinrichs Kelowna M50-54 51 8 1:30:25 05:39
98 Mike Everett Vernon M65-69 52 7 1:30:29 05:39
99 Bill Stephens Kelowna M70-74 53 1:30:34 05:39
100 Mandy Ventresca Edmonton F20-29 47 5 1:30:44 05:40
101 Liz Borrett Kelowna F70-74 48 1:30:51 05:40
102 Susan Templin Kelowna F60-64 49 1:31:09 05:41
103 Camille De Montreuil Kelowna F55-59 50 4 1:31:18 05:42
104 Marianne Willis Oliver F55-59 51 5 1:31:42 05:43
105 Charlotte Heidt Kelowna F60-64 52 1:31:42 05:43
106 Becky Williams Winfield F55-59 53 6 1:32:07 05:45
107 Mary Tulk Penticton F45-49 54 7 1:32:17 05:46
108 Nathan Taylor Vernon M30-34 54 8 1:32:29 05:46
109 Guenter Naumann Okanagan Falls M75-79 55 1:32:59 05:48
110 Patrick Amundsen Summerland M55-59 56 7 1:33:22 05:50
111 Jocelynn Rooke West Vancouver F35-39 55 6 1:33:24 05:50
112 Garry Bell Kelowna M70-74 57 1:33:41 05:51
113 Lynn Stoesz Lake Country F35-39 56 7 1:33:55 05:52
114 Arnie Gash Okanagan Falls F65-69 57 1:34:40 05:55
115 Jason Peck Penticton M40-44 58 6 1:34:50 05:55
116 Andrea Devito Penticton F40-44 58 11 1:34:52 05:55
117 Frank Gigliotti Penticton M60-64 59 8 1:35:06 05:56
118 Kent Matthies Okanagan Falls M50-54 60 9 1:35:06 05:56
119 Sherry Sim Kamloops F50-54 59 8 1:35:39 05:58
120 Tracy-Kim Campbell Vancouver F50-54 60 9 1:36:08 06:00
121 Amanda Vandeweghe Penticton F50-54 61 10 1:36:10 06:00
122 Cheryl Hills Summerland F45-49 62 8 1:36:51 06:03
123 Ashton Miller West Kelowna F20-29 63 6 1:36:54 06:03
124 Al Smith Osoyoos M65-69 61 8 1:37:59 06:07
125 Karen Holland Penticton F45-49 64 9 1:38:16 06:08
126 Megan Solley Naramata F20-29 65 7 1:38:36 06:09
127 Kelley Peat Indian Rock F20-29 66 8 1:38:37 06:09
128 Kirsty Kraft West Kelowna F40-44 67 12 1:39:18 06:12
129 Barb Robertson West Kelowna F55-59 68 7 1:39:18 06:12
130 James Palanio Penticton M45-49 62 5 1:39:56 06:14
131 Heather Miller West Kelowna F45-49 69 10 1:40:15 06:15
132 Regina Black Kamloops F50-54 70 11 1:40:30 06:16
133 Vincent Manfre Oliver M60-64 63 9 1:41:30 06:20
134 Linda Conrad Vernon F60-64 71 1:41:41 06:21
135 Marcia Mendes West Kelowna F45-49 72 11 1:43:14 06:27
136 Dani Sarbit Kelowna F35-39 73 8 1:43:30 06:28
137 Jeanne Mace Kelowna F40-44 74 13 1:43:30 06:28
138 Ellen Langton Surrey F55-59 75 8 1:43:47 06:29
139 Yvonne Moritz Peachland F45-49 76 12 1:44:19 06:31
140 Roland Laplante Penticton M65-69 64 9 1:45:11 06:34
141 Kim Finlayson Penticton F40-44 77 14 1:45:47 06:36
142 Joy Peterson Penticton F45-49 78 13 1:47:02 06:41
143 Sandra Wike Kelowna F55-59 79 9 1:47:37 06:43
144 Sheri Murphy Penticton F35-39 80 9 1:48:34 06:47
145 Penny Wright Winfield F45-49 81 14 1:49:47 06:51
146 Linda Woodbury Kamloops F65-69 82 1:49:50 06:51
147 Robyn Abear Revelstoke F60-64 83 4 1:50:23 06:53
148 Bruce Butcher Kamloops M75-79 65 1:50:35 06:54
149 Lynn Schoenne Penticton F50-54 84 12 1:51:02 06:56
150 Bruce Schoenne Penticton M50-54 66 10 1:51:02 06:56
151 Michelle Weston Victoria F50-54 85 13 1:55:18 07:12
152 Kelly Lindsey Penticton F35-39 86 10 1:59:12 07:27
Missing or Incorrect Results

Back to top

Age Grading - Female

# Name City Age Time Time*
1 Cindy Rhodes Kelowna F55-59 01:07:44 00:57:13
2 Yvonne Timewell Kamloops F45-49 01:08:44 01:02:49
3 Liz Borrett Kelowna F70-74 01:30:51 01:03:42
4 Emily Allin Penticton F16-19 01:04:11 01:03:43
5 Diane Leonard Kelowna F65-69 01:24:09 01:03:59
6 Marie-Josee Bedard Merritt F40-44 01:07:22 01:04:09
7 Helen Munro Kelowna F50-54 01:14:23 01:05:07
8 Lynda Proce Coldstream F55-59 01:21:37 01:07:42
9 Suzan Cochrane Penticton F50-54 01:18:56 01:09:06
10 Jen Annett Penticton F20-29 01:09:10 01:09:10
11 Sally Heinrick Kelowna F50-54 01:20:20 01:10:57
12 Arnie Gash Okanagan Falls F65-69 01:34:40 01:11:59
13 Susan Templin Kelowna F60-64 01:31:09 01:12:48
14 Delilah Topic Kelowna F30-34 01:13:05 01:13:00
15 Alison Crawford Summerland F55-59 01:27:48 01:13:30
16 Dylan Erhardt Kelowna F16-19 01:14:08 01:13:35
17 Pamela Rutten Penticton F35-39 01:16:19 01:15:08
18 Deb Lougheed Penticton F50-54 01:25:59 01:15:17
19 Charlotte Heidt Kelowna F60-64 01:31:42 01:15:22
20 Laurie Matthies Okanagan Falls F50-54 01:26:24 01:15:39
21 Katharine Bowyer Penticton F20-29 01:15:42 01:15:42
22 Laura Medcalf Vernon F30-34 01:15:58 01:15:52
23 Laurie Wheeler Naramata F45-49 01:23:20 01:16:10
24 Melissa Hagel Penticton F30-34 01:16:19 01:16:13
25 Lisa Wambold Penticton F35-39 01:17:34 01:16:22
26 Camille De Montreuil Kelowna F55-59 01:31:18 01:16:26
27 Lisa Spalding Penticton F45-49 01:24:39 01:16:43
28 Marianne Willis Oliver F55-59 01:31:42 01:16:46
29 Becky Williams Winfield F55-59 01:32:07 01:17:07
30 Carolyn Hubbard North Vancouver F45-49 01:24:25 01:17:09
31 Leanne Karpuk Penticton F45-49 01:24:49 01:17:31
32 Kathleen Renaud Vernon F50-54 01:28:55 01:17:51
33 Caroline Goodjohn Naramata F30-34 01:18:19 01:18:13
34 Deborah Chadwick Summerland F50-54 01:29:24 01:18:16
34 Sherie Seddon Penticton F30-34 01:18:22 01:18:16
36 Danette Zamluk Westbank F35-39 01:19:37 01:18:23
37 Robin Levant Oliver F40-44 01:22:33 01:18:36
38 Amanda Kontkanen Penticton F35-39 01:20:09 01:18:54
39 Kiah Wheeler Naramata F16-19 01:19:31 01:18:56
40 Joelle Sherman Vernon F45-49 01:26:46 01:19:18
41 Lori Mullin Summerland F40-44 01:23:44 01:19:44
42 Becki Parker Lake Country F40-44 01:24:31 01:20:29
43 Monika Brooke Penticton F40-44 01:24:50 01:20:47
44 Janette Davies Naramata F40-44 01:25:00 01:20:56
45 Courtney Milligan Penticton F16-19 01:22:22 01:21:46
46 Sophia Chadwick Summerland F20-29 01:21:52 01:21:52
47 Barb Robertson West Kelowna F55-59 01:39:18 01:23:08
48 Linda Conrad Vernon F60-64 01:41:41 01:23:34
49 Cheryl Heggs Lake Country F40-44 01:27:53 01:23:41
50 Autumn Hughes Denman Island F20-29 01:23:42 01:23:42
51 Sherry Sim Kamloops F50-54 01:35:39 01:23:44
52 Jeannie Pelletier Kelowna F40-44 01:27:57 01:23:45
53 Tracy-Kim Campbell Vancouver F50-54 01:36:08 01:24:10
54 Amanda Vandeweghe Penticton F50-54 01:36:10 01:24:12
55 Mary Tulk Penticton F45-49 01:32:17 01:24:20
56 Linda Woodbury Kamloops F65-69 01:49:50 01:24:21
57 Vanessa Mclean Oliver F40-44 01:28:46 01:24:32
58 Michelle Kincade Penticton F40-44 01:29:09 01:24:54
59 Cathy Rooke Penticton F35-39 01:26:31 01:25:11
60 Ellen Langton Surrey F55-59 01:43:47 01:26:53
61 Regina Black Kamloops F50-54 01:40:30 01:27:13
62 Robyn Abear Revelstoke F60-64 01:50:23 01:28:10
63 Cheryl Hills Summerland F45-49 01:36:51 01:28:31
64 Jennifer Wagner Penticton F30-34 01:29:09 01:29:02
65 Sandra Wike Kelowna F55-59 01:47:37 01:29:15
66 Karen Holland Penticton F45-49 01:38:16 01:29:48
67 Andrea Devito Penticton F40-44 01:34:52 01:30:20
68 Mandy Ventresca Edmonton F20-29 01:30:44 01:30:44
69 Heather Miller West Kelowna F45-49 01:40:15 01:31:37
70 Jocelynn Rooke West Vancouver F35-39 01:33:24 01:31:57
71 Lynn Stoesz Lake Country F35-39 01:33:55 01:32:28
72 Marcia Mendes West Kelowna F45-49 01:43:14 01:34:21
73 Kirsty Kraft West Kelowna F40-44 01:39:18 01:34:33
74 Yvonne Moritz Peachland F45-49 01:44:19 01:35:20
75 Ashton Miller West Kelowna F20-29 01:36:54 01:36:54
76 Lynn Schoenne Penticton F50-54 01:51:02 01:37:13
77 Jeanne Mace Kelowna F40-44 01:43:30 01:38:33
78 Megan Solley Naramata F20-29 01:38:36 01:38:36
79 Kelley Peat Indian Rock F20-29 01:38:37 01:38:37
80 Joy Peterson Penticton F45-49 01:47:02 01:39:28
81 Penny Wright Winfield F45-49 01:49:47 01:40:20
82 Kim Finlayson Penticton F40-44 01:45:47 01:40:44
83 Michelle Weston Victoria F50-54 01:55:18 01:40:57
84 Dani Sarbit Kelowna F35-39 01:43:30 01:41:54
85 Sheri Murphy Penticton F35-39 01:48:34 01:46:53
86 Kelly Lindsey Penticton F35-39 01:59:12 01:57:21
Missing or Incorrect Results

Back to top

Age Grading - Male

# Name City Age Time Time*
1 Douglas Alward Chilliwack M55-59 00:59:39 00:49:56
2 Bruce Wark Merritt M60-64 01:07:11 00:53:40
3 Hans Aabye Merritt M35-39 00:54:40 00:54:18
4 Trevor Haaheim Kelowna M40-44 00:57:37 00:54:52
5 Sergio Pio Penticton M45-49 01:00:40 00:54:59
6 Ryan Day Penticton M30-34 00:56:45 00:56:41
7 Perry Grunenberg Kamloops M55-59 01:07:50 00:56:47
8 Simon Craig Vernon M45-49 01:03:16 00:57:49
9 Randy Werger Kelowna M50-54 01:06:31 00:58:14
10 Justin Birks Penticton M30-34 00:58:56 00:58:52
11 Hector Carlos Penticton M40-44 01:02:15 00:59:17
12 Carl Peterson Penticton M60-64 01:14:23 00:59:59
13 Tim Purcer Kelowna M55-59 01:11:45 01:00:37
14 Bill Faulkner Kaleden M65-69 01:19:53 01:00:44
15 Peter Pollhammer Kelowna M70-74 01:22:25 01:00:46
16 Wade Carlson Penticton M20-29 01:01:02 01:01:02
17 Jordan Sim Kamloops M50-54 01:10:33 01:01:13
18 Lawrence Grigg Vancouver M40-44 01:04:26 01:01:21
19 Guenter Naumann Okanagan Falls M75-79 01:32:59 01:01:57
20 Shayne Wright Vernon M35-39 01:03:00 01:02:01
21 Lance Zablotney Penticton M55-59 01:12:49 01:02:05
22 Gerry Naito Vernon M55-59 01:13:18 01:02:29
23 Brad Cochrane Penticton M50-54 01:11:28 01:02:34
24 Josh Heinrich Penticton M30-34 01:02:41 01:02:41
25 Keith Burton West Kelowna M65-69 01:22:55 01:03:03
26 Doug Giles North Vancouver M30-34 01:03:42 01:03:37
27 Rod Campbell Vancouver M50-54 01:13:40 01:04:30
28 Fraser Stewart Kamloops M60-64 01:21:13 01:04:52
29 Frank Wolfinger Penticton M55-59 01:17:35 01:04:57
30 Ken Riegel Vernon M60-64 01:22:59 01:05:01
31 Bill Stephens Kelowna M70-74 01:30:34 01:05:12
32 Jeremy Hopwood Richmond M30-34 01:06:56 01:06:51
33 Shawn Baenziger Kelowna M65-69 01:28:28 01:07:16
34 Trevor Gambell Osoyoos M65-69 01:29:25 01:07:59
35 Ted Sawford Calgary M65-69 01:29:28 01:08:02
36 Robert Ferguson Naramata M60-64 01:25:13 01:08:04
37 Chris Greenway Kelowna M60-64 01:23:53 01:08:17
38 Melvin Doherty Kamloops M60-64 01:26:26 01:08:22
39 Louis Stupar Kelowna M65-69 01:30:09 01:08:33
40 Mike Everett Vernon M65-69 01:30:29 01:08:48
41 Garry Bell Kelowna M70-74 01:33:41 01:09:04
42 John Wilson Vernon M35-39 01:10:27 01:09:21
43 Bruce Butcher Kamloops M75-79 01:50:35 01:12:21
44 Ed Marbach Penticton M50-54 01:23:20 01:12:58
45 Steve Lapointe Okanagan Falls M50-54 01:24:01 01:13:33
46 Stephen Joyce Coldstream M50-54 01:23:19 01:13:35
47 Dan Tweyman Penticton M30-34 01:13:54 01:13:49
48 Al Smith Osoyoos M65-69 01:37:59 01:14:30
49 Frank Gigliotti Penticton M60-64 01:35:06 01:15:57
50 Patrick Amundsen Summerland M55-59 01:33:22 01:17:26
51 Robert Johnston Burnaby M45-49 01:24:58 01:17:39
52 Kyle Sunderman Penticton M40-44 01:21:59 01:18:04
53 Russell Williams Vernon M40-44 01:23:10 01:19:12
53 Matt Holmes Penticton M35-39 01:20:27 01:19:12
55 Roland Laplante Penticton M65-69 01:45:11 01:19:59
56 Rory Bass Kelowna M45-49 01:27:15 01:20:25
57 Vincent Manfre Oliver M60-64 01:41:30 01:21:04
58 Markus Heinrichs Kelowna M50-54 01:30:25 01:21:14
59 Curtis Wallace Vernon M30-34 01:22:17 01:22:17
60 Kent Matthies Okanagan Falls M50-54 01:35:06 01:23:16
61 Andrew Mitchell Penticton M20-29 01:23:42 01:23:42
62 Carsten Reinsch Kelowna M35-39 01:27:27 01:27:07
63 Jason Peck Penticton M40-44 01:34:50 01:30:18
64 James Palanio Penticton M45-49 01:39:56 01:31:20
65 Nathan Taylor Vernon M30-34 01:32:29 01:32:22
66 Bruce Schoenne Penticton M50-54 01:51:02 01:37:13
Missing or Incorrect Results